RPLL/MNL METAR and TAF weather

Enter ICAO airport designator
Station Type Date Time Source
RPLL METAR 2019/10/23 20:00 UTC NOAA

RPLL 232000Z 00000KT 9999 FEW025 27/23 Q1009 NOSIG RMK A2980


Station Type Date Time Source
RPLL Decoded METAR 2019/10/23 20:00 UTC NOAA

Ninoy Aquino Inter-National Airport, Philippines (RPLL) 14-31N 121-00E 15M
Oct 23, 2019 - 04:00 PM EDT / 2019.10.23 2000 UTC
Wind: Calm:0
Visibility: greater than 7 mile(s):0
Sky conditions: mostly clear
Temperature: 80 F (27 C)
Dew Point: 73 F (23 C)
Relative Humidity: 78%
Pressure (altimeter): 29.80 in. Hg (1009 hPa)
ob: RPLL 232000Z 00000KT 9999 FEW025 27/23 Q1009 NOSIG RMK A2980
cycle: 20

Station Type Date Time Source
RPLL TAF 2019/10/23 18:03 UTC NOAA

TAF RPLL 231700Z 2318/2424 10004KT 9999 FEW025 TX34/2406Z TN26/2321Z
TEMPO 2409/2415 09010KT FEW025 SCT100

Example: see airport list